sensor_id;sensor_type;location;lat;lon;timestamp;P1;durP1;ratioP1;P2;durP2;ratioP2
63218;SDS011;49320;52.512;13.448;2022-09-29T00:01:02;4.70;;;2.78;;
63218;SDS011;49320;52.512;13.448;2022-09-29T00:03:29;2.92;;;2.60;;
63218;SDS011;49320;52.512;13.448;2022-09-29T00:05:56;3.92;;;3.10;;
63218;SDS011;49320;52.512;13.448;2022-09-29T00:08:25;3.35;;;3.05;;
63218;SDS011;49320;52.512;13.448;2022-09-29T00:10:54;3.35;;;2.90;;
63218;SDS011;49320;52.512;13.448;2022-09-29T00:13:22;2.80;;;2.53;;
63218;SDS011;49320;52.512;13.448;2022-09-29T00:15:55;3.53;;;2.80;;
63218;SDS011;49320;52.512;13.448;2022-09-29T00:18:25;3.30;;;2.55;;
63218;SDS011;49320;52.512;13.448;2022-09-29T00:20:57;3.90;;;3.50;;
63218;SDS011;49320;52.512;13.448;2022-09-29T00:23:26;5.90;;;4.15;;
63218;SDS011;49320;52.512;13.448;2022-09-29T00:26:09;4.95;;;4.25;;
63218;SDS011;49320;52.512;13.448;2022-09-29T00:28:46;4.55;;;4.03;;
63218;SDS011;49320;52.512;13.448;2022-09-29T00:31:22;4.35;;;3.95;;
63218;SDS011;49320;52.512;13.448;2022-09-29T00:33:51;3.67;;;3.33;;
63218;SDS011;49320;52.512;13.448;2022-09-29T00:36:19;3.92;;;3.53;;
63218;SDS011;49320;52.512;13.448;2022-09-29T00:38:48;3.50;;;3.20;;
63218;SDS011;49320;52.512;13.448;2022-09-29T00:41:41;3.33;;;3.03;;
63218;SDS011;49320;52.512;13.448;2022-09-29T00:46:42;3.63;;;3.30;;
63218;SDS011;49320;52.512;13.448;2022-09-29T00:52:20;3.85;;;3.42;;
63218;SDS011;49320;52.512;13.448;2022-09-29T00:54:57;5.43;;;3.58;;
63218;SDS011;49320;52.512;13.448;2022-09-29T00:57:32;3.50;;;3.20;;
63218;SDS011;49320;52.512;13.448;2022-09-29T01:00:33;3.92;;;3.35;;
63218;SDS011;49320;52.512;13.448;2022-09-29T01:03:05;4.15;;;3.75;;
63218;SDS011;49320;52.512;13.448;2022-09-29T01:05:39;4.07;;;3.58;;
63218;SDS011;49320;52.512;13.448;2022-09-29T01:08:14;4.45;;;3.50;;
63218;SDS011;49320;52.512;13.448;2022-09-29T01:10:50;3.95;;;3.53;;
63218;SDS011;49320;52.512;13.448;2022-09-29T01:13:18;5.15;;;3.90;;
63218;SDS011;49320;52.512;13.448;2022-09-29T01:15:47;4.28;;;3.78;;
63218;SDS011;49320;52.512;13.448;2022-09-29T01:18:14;3.85;;;3.45;;
63218;SDS011;49320;52.512;13.448;2022-09-29T01:21:25;4.18;;;3.78;;
63218;SDS011;49320;52.512;13.448;2022-09-29T01:24:12;4.10;;;3.67;;
63218;SDS011;49320;52.512;13.448;2022-09-29T01:29:52;3.80;;;3.50;;
63218;SDS011;49320;52.512;13.448;2022-09-29T01:33:04;4.00;;;3.60;;
63218;SDS011;49320;52.512;13.448;2022-09-29T01:36:10;5.03;;;4.53;;
63218;SDS011;49320;52.512;13.448;2022-09-29T01:41:50;4.55;;;4.13;;
63218;SDS011;49320;52.512;13.448;2022-09-29T01:44:41;4.30;;;3.90;;
63218;SDS011;49320;52.512;13.448;2022-09-29T01:47:32;4.05;;;3.58;;
63218;SDS011;49320;52.512;13.448;2022-09-29T01:50:07;4.50;;;3.47;;
63218;SDS011;49320;52.512;13.448;2022-09-29T01:52:44;3.72;;;3.42;;
63218;SDS011;49320;52.512;13.448;2022-09-29T01:55:17;4.00;;;3.60;;
63218;SDS011;49320;52.512;13.448;2022-09-29T01:58:08;4.30;;;3.90;;
63218;SDS011;49320;52.512;13.448;2022-09-29T02:00:47;4.10;;;3.42;;
63218;SDS011;49320;52.512;13.448;2022-09-29T02:03:31;4.05;;;3.65;;
63218;SDS011;49320;52.512;13.448;2022-09-29T02:06:08;4.72;;;4.18;;
63218;SDS011;49320;52.512;13.448;2022-09-29T02:08:50;3.97;;;3.58;;
63218;SDS011;49320;52.512;13.448;2022-09-29T02:11:20;3.97;;;3.60;;
63218;SDS011;49320;52.512;13.448;2022-09-29T02:14:06;4.60;;;3.97;;
63218;SDS011;49320;52.512;13.448;2022-09-29T02:16:42;3.92;;;3.47;;
63218;SDS011;49320;52.512;13.448;2022-09-29T02:19:24;4.18;;;3.72;;
63218;SDS011;49320;52.512;13.448;2022-09-29T02:21:54;3.85;;;3.50;;
63218;SDS011;49320;52.512;13.448;2022-09-29T02:24:21;3.95;;;3.55;;
63218;SDS011;49320;52.512;13.448;2022-09-29T02:26:49;4.10;;;3.70;;
63218;SDS011;49320;52.512;13.448;2022-09-29T02:29:18;4.38;;;3.97;;
63218;SDS011;49320;52.512;13.448;2022-09-29T02:31:46;5.35;;;3.85;;
63218;SDS011;49320;52.512;13.448;2022-09-29T02:34:15;4.07;;;3.67;;
63218;SDS011;49320;52.512;13.448;2022-09-29T02:37:05;4.05;;;3.65;;
63218;SDS011;49320;52.512;13.448;2022-09-29T02:49:54;3.88;;;3.47;;
63218;SDS011;49320;52.512;13.448;2022-09-29T02:52:32;3.95;;;3.65;;
63218;SDS011;49320;52.512;13.448;2022-09-29T02:55:37;6.57;;;4.28;;
63218;SDS011;49320;52.512;13.448;2022-09-29T02:59:09;4.50;;;4.10;;
63218;SDS011;49320;52.512;13.448;2022-09-29T03:01:51;4.50;;;4.03;;
63218;SDS011;49320;52.512;13.448;2022-09-29T03:04:22;4.68;;;4.28;;
63218;SDS011;49320;52.512;13.448;2022-09-29T03:06:52;4.57;;;4.18;;
63218;SDS011;49320;52.512;13.448;2022-09-29T03:09:19;5.30;;;4.55;;
63218;SDS011;49320;52.512;13.448;2022-09-29T03:11:46;4.85;;;4.38;;
63218;SDS011;49320;52.512;13.448;2022-09-29T03:14:13;5.20;;;4.70;;
63218;SDS011;49320;52.512;13.448;2022-09-29T03:16:40;6.70;;;5.72;;
63218;SDS011;49320;52.512;13.448;2022-09-29T03:19:08;5.55;;;5.05;;
63218;SDS011;49320;52.512;13.448;2022-09-29T03:21:34;5.68;;;5.07;;
63218;SDS011;49320;52.512;13.448;2022-09-29T03:24:01;5.78;;;5.18;;
63218;SDS011;49320;52.512;13.448;2022-09-29T03:26:28;5.78;;;5.00;;
63218;SDS011;49320;52.512;13.448;2022-09-29T03:28:55;5.68;;;4.88;;
63218;SDS011;49320;52.512;13.448;2022-09-29T03:31:22;5.53;;;5.03;;
63218;SDS011;49320;52.512;13.448;2022-09-29T03:33:49;5.57;;;5.07;;
63218;SDS011;49320;52.512;13.448;2022-09-29T03:36:16;7.40;;;5.47;;
63218;SDS011;49320;52.512;13.448;2022-09-29T03:38:43;5.90;;;5.40;;
63218;SDS011;49320;52.512;13.448;2022-09-29T03:41:12;5.53;;;5.03;;
63218;SDS011;49320;52.512;13.448;2022-09-29T03:43:39;6.03;;;5.43;;
63218;SDS011;49320;52.512;13.448;2022-09-29T03:46:05;6.00;;;5.40;;
63218;SDS011;49320;52.512;13.448;2022-09-29T03:48:32;5.43;;;4.93;;
63218;SDS011;49320;52.512;13.448;2022-09-29T03:51:00;6.00;;;5.40;;
63218;SDS011;49320;52.512;13.448;2022-09-29T03:53:27;5.90;;;4.85;;
63218;SDS011;49320;52.512;13.448;2022-09-29T03:55:54;5.43;;;4.90;;
63218;SDS011;49320;52.512;13.448;2022-09-29T03:58:21;5.72;;;5.22;;
63218;SDS011;49320;52.512;13.448;2022-09-29T04:00:48;6.68;;;5.53;;
63218;SDS011;49320;52.512;13.448;2022-09-29T04:03:15;5.70;;;5.20;;
63218;SDS011;49320;52.512;13.448;2022-09-29T04:05:43;6.13;;;5.28;;
63218;SDS011;49320;52.512;13.448;2022-09-29T04:08:12;6.18;;;5.57;;
63218;SDS011;49320;52.512;13.448;2022-09-29T04:10:40;6.30;;;5.70;;
63218;SDS011;49320;52.512;13.448;2022-09-29T04:13:07;5.80;;;5.30;;
63218;SDS011;49320;52.512;13.448;2022-09-29T04:15:34;6.40;;;5.75;;
63218;SDS011;49320;52.512;13.448;2022-09-29T04:18:01;5.85;;;5.28;;
63218;SDS011;49320;52.512;13.448;2022-09-29T04:20:28;6.28;;;5.68;;
63218;SDS011;49320;52.512;13.448;2022-09-29T04:22:55;5.97;;;5.38;;
63218;SDS011;49320;52.512;13.448;2022-09-29T04:25:21;5.45;;;4.95;;
63218;SDS011;49320;52.512;13.448;2022-09-29T04:27:48;6.93;;;5.70;;
63218;SDS011;49320;52.512;13.448;2022-09-29T04:30:15;5.53;;;5.03;;
63218;SDS011;49320;52.512;13.448;2022-09-29T04:32:43;5.78;;;5.22;;
63218;SDS011;49320;52.512;13.448;2022-09-29T04:35:10;5.30;;;4.80;;
63218;SDS011;49320;52.512;13.448;2022-09-29T04:37:37;6.38;;;5.78;;
63218;SDS011;49320;52.512;13.448;2022-09-29T04:40:03;6.00;;;5.40;;
63218;SDS011;49320;52.512;13.448;2022-09-29T04:42:31;6.72;;;5.90;;
63218;SDS011;49320;52.512;13.448;2022-09-29T04:44:58;6.38;;;5.78;;
63218;SDS011;49320;52.512;13.448;2022-09-29T04:47:25;6.68;;;6.00;;
63218;SDS011;49320;52.512;13.448;2022-09-29T04:49:52;6.60;;;6.00;;
63218;SDS011;49320;52.512;13.448;2022-09-29T04:52:19;6.47;;;5.88;;
63218;SDS011;49320;52.512;13.448;2022-09-29T04:54:46;6.95;;;6.25;;
63218;SDS011;49320;52.512;13.448;2022-09-29T04:57:13;7.20;;;6.15;;
63218;SDS011;49320;52.512;13.448;2022-09-29T04:59:39;7.28;;;6.32;;
63218;SDS011;49320;52.512;13.448;2022-09-29T05:02:06;8.18;;;7.38;;
63218;SDS011;49320;52.512;13.448;2022-09-29T05:04:33;6.85;;;6.05;;
63218;SDS011;49320;52.512;13.448;2022-09-29T05:07:00;6.68;;;6.05;;
63218;SDS011;49320;52.512;13.448;2022-09-29T05:09:27;7.43;;;6.15;;
63218;SDS011;49320;52.512;13.448;2022-09-29T05:11:59;7.07;;;6.38;;
63218;SDS011;49320;52.512;13.448;2022-09-29T05:14:27;6.88;;;6.10;;
63218;SDS011;49320;52.512;13.448;2022-09-29T05:16:54;7.75;;;6.55;;
63218;SDS011;49320;52.512;13.448;2022-09-29T05:19:22;6.53;;;5.85;;
63218;SDS011;49320;52.512;13.448;2022-09-29T05:21:48;6.82;;;6.13;;
63218;SDS011;49320;52.512;13.448;2022-09-29T05:24:16;7.43;;;6.65;;
63218;SDS011;49320;52.512;13.448;2022-09-29T05:26:43;7.47;;;5.95;;
63218;SDS011;49320;52.512;13.448;2022-09-29T05:29:10;6.97;;;5.80;;
63218;SDS011;49320;52.512;13.448;2022-09-29T05:31:37;6.65;;;5.95;;
63218;SDS011;49320;52.512;13.448;2022-09-29T05:34:04;7.00;;;6.30;;
63218;SDS011;49320;52.512;13.448;2022-09-29T05:36:31;7.13;;;6.15;;
63218;SDS011;49320;52.512;13.448;2022-09-29T05:38:58;6.70;;;5.68;;
63218;SDS011;49320;52.512;13.448;2022-09-29T05:41:25;6.65;;;5.88;;
63218;SDS011;49320;52.512;13.448;2022-09-29T05:43:52;5.82;;;5.22;;
63218;SDS011;49320;52.512;13.448;2022-09-29T05:46:21;6.82;;;5.75;;
63218;SDS011;49320;52.512;13.448;2022-09-29T05:48:49;7.00;;;6.07;;
63218;SDS011;49320;52.512;13.448;2022-09-29T05:51:17;9.40;;;6.85;;
63218;SDS011;49320;52.512;13.448;2022-09-29T05:53:49;6.93;;;6.13;;
63218;SDS011;49320;52.512;13.448;2022-09-29T05:56:21;6.70;;;5.78;;
63218;SDS011;49320;52.512;13.448;2022-09-29T05:58:51;6.25;;;5.65;;
63218;SDS011;49320;52.512;13.448;2022-09-29T06:01:19;7.65;;;6.85;;
63218;SDS011;49320;52.512;13.448;2022-09-29T06:03:52;7.37;;;6.43;;
63218;SDS011;49320;52.512;13.448;2022-09-29T06:06:21;7.25;;;6.53;;
63218;SDS011;49320;52.512;13.448;2022-09-29T06:08:52;7.40;;;6.53;;
63218;SDS011;49320;52.512;13.448;2022-09-29T06:11:21;7.88;;;7.00;;
63218;SDS011;49320;52.512;13.448;2022-09-29T06:13:52;7.22;;;6.53;;
63218;SDS011;49320;52.512;13.448;2022-09-29T06:16:22;6.82;;;6.13;;
63218;SDS011;49320;52.512;13.448;2022-09-29T06:18:51;8.45;;;6.45;;
63218;SDS011;49320;52.512;13.448;2022-09-29T06:21:19;9.35;;;8.40;;
63218;SDS011;49320;52.512;13.448;2022-09-29T06:23:50;11.18;;;8.75;;
63218;SDS011;49320;52.512;13.448;2022-09-29T06:26:20;10.35;;;7.80;;
63218;SDS011;49320;52.512;13.448;2022-09-29T06:28:49;8.20;;;7.38;;
63218;SDS011;49320;52.512;13.448;2022-09-29T06:31:19;8.20;;;7.00;;
63218;SDS011;49320;52.512;13.448;2022-09-29T06:33:49;7.57;;;6.78;;
63218;SDS011;49320;52.512;13.448;2022-09-29T06:36:17;8.23;;;7.30;;
63218;SDS011;49320;52.512;13.448;2022-09-29T06:39:12;8.23;;;6.72;;
63218;SDS011;49320;52.512;13.448;2022-09-29T06:41:40;8.00;;;7.25;;
63218;SDS011;49320;52.512;13.448;2022-09-29T06:44:13;7.95;;;7.15;;
63218;SDS011;49320;52.512;13.448;2022-09-29T06:46:40;9.75;;;7.55;;
63218;SDS011;49320;52.512;13.448;2022-09-29T06:49:07;9.30;;;7.75;;
63218;SDS011;49320;52.512;13.448;2022-09-29T06:51:38;8.85;;;7.95;;
63218;SDS011;49320;52.512;13.448;2022-09-29T06:54:12;8.88;;;7.25;;
63218;SDS011;49320;52.512;13.448;2022-09-29T06:56:41;9.57;;;8.18;;
63218;SDS011;49320;52.512;13.448;2022-09-29T06:59:11;11.07;;;7.70;;
63218;SDS011;49320;52.512;13.448;2022-09-29T07:01:38;9.43;;;8.40;;
63218;SDS011;49320;52.512;13.448;2022-09-29T07:04:05;9.60;;;8.32;;
63218;SDS011;49320;52.512;13.448;2022-09-29T07:06:31;8.70;;;7.80;;
63218;SDS011;49320;52.512;13.448;2022-09-29T07:08:58;8.50;;;7.35;;
63218;SDS011;49320;52.512;13.448;2022-09-29T07:11:26;10.48;;;7.95;;
63218;SDS011;49320;52.512;13.448;2022-09-29T07:13:54;9.82;;;8.68;;
63218;SDS011;49320;52.512;13.448;2022-09-29T07:16:21;13.45;;;8.60;;
63218;SDS011;49320;52.512;13.448;2022-09-29T07:18:51;10.15;;;8.07;;
63218;SDS011;49320;52.512;13.448;2022-09-29T07:21:18;10.18;;;8.85;;
63218;SDS011;49320;52.512;13.448;2022-09-29T07:23:47;10.07;;;9.00;;
63218;SDS011;49320;52.512;13.448;2022-09-29T07:26:15;10.85;;;8.57;;
63218;SDS011;49320;52.512;13.448;2022-09-29T07:28:43;9.05;;;7.63;;
63218;SDS011;49320;52.512;13.448;2022-09-29T07:31:13;9.50;;;8.48;;
63218;SDS011;49320;52.512;13.448;2022-09-29T07:33:46;10.60;;;9.07;;
63218;SDS011;49320;52.512;13.448;2022-09-29T07:36:16;10.30;;;8.55;;
63218;SDS011;49320;52.512;13.448;2022-09-29T07:38:46;11.05;;;9.15;;
63218;SDS011;49320;52.512;13.448;2022-09-29T07:41:15;11.65;;;9.60;;
63218;SDS011;49320;52.512;13.448;2022-09-29T07:43:44;12.02;;;9.32;;
63218;SDS011;49320;52.512;13.448;2022-09-29T07:46:11;10.73;;;9.63;;
63218;SDS011;49320;52.512;13.448;2022-09-29T07:48:38;10.10;;;9.02;;
63218;SDS011;49320;52.512;13.448;2022-09-29T07:51:07;11.70;;;10.35;;
63218;SDS011;49320;52.512;13.448;2022-09-29T07:53:41;10.90;;;9.07;;
63218;SDS011;49320;52.512;13.448;2022-09-29T07:56:10;11.57;;;9.13;;
63218;SDS011;49320;52.512;13.448;2022-09-29T07:58:44;11.30;;;9.43;;
63218;SDS011;49320;52.512;13.448;2022-09-29T08:01:14;11.10;;;9.65;;
63218;SDS011;49320;52.512;13.448;2022-09-29T08:03:47;10.63;;;8.68;;
63218;SDS011;49320;52.512;13.448;2022-09-29T08:06:18;11.65;;;9.57;;
63218;SDS011;49320;52.512;13.448;2022-09-29T08:08:47;11.57;;;9.85;;
63218;SDS011;49320;52.512;13.448;2022-09-29T08:11:28;11.50;;;10.20;;
63218;SDS011;49320;52.512;13.448;2022-09-29T08:13:58;10.90;;;9.65;;
63218;SDS011;49320;52.512;13.448;2022-09-29T08:16:26;12.07;;;10.15;;
63218;SDS011;49320;52.512;13.448;2022-09-29T08:18:53;11.15;;;9.95;;
63218;SDS011;49320;52.512;13.448;2022-09-29T08:21:20;10.80;;;9.70;;
63218;SDS011;49320;52.512;13.448;2022-09-29T08:23:47;12.68;;;10.55;;
63218;SDS011;49320;52.512;13.448;2022-09-29T08:26:15;12.60;;;10.63;;
63218;SDS011;49320;52.512;13.448;2022-09-29T08:28:58;11.85;;;10.63;;
63218;SDS011;49320;52.512;13.448;2022-09-29T08:31:33;11.65;;;10.45;;
63218;SDS011;49320;52.512;13.448;2022-09-29T08:34:02;11.48;;;10.27;;
63218;SDS011;49320;52.512;13.448;2022-09-29T08:36:29;11.70;;;10.07;;
63218;SDS011;49320;52.512;13.448;2022-09-29T08:38:56;11.68;;;10.48;;
63218;SDS011;49320;52.512;13.448;2022-09-29T08:47:24;10.90;;;9.38;;
63218;SDS011;49320;52.512;13.448;2022-09-29T08:50:19;12.00;;;10.07;;
63218;SDS011;49320;52.512;13.448;2022-09-29T08:52:57;11.02;;;9.85;;
63218;SDS011;49320;52.512;13.448;2022-09-29T08:56:02;9.48;;;8.55;;
63218;SDS011;49320;52.512;13.448;2022-09-29T08:58:39;10.02;;;9.02;;
63218;SDS011;49320;52.512;13.448;2022-09-29T09:01:20;10.68;;;9.60;;
63218;SDS011;49320;52.512;13.448;2022-09-29T09:04:17;10.93;;;9.75;;
63218;SDS011;49320;52.512;13.448;2022-09-29T09:09:45;9.70;;;8.70;;
63218;SDS011;49320;52.512;13.448;2022-09-29T09:19:28;10.80;;;9.68;;
63218;SDS011;49320;52.512;13.448;2022-09-29T09:25:17;9.88;;;8.85;;
63218;SDS011;49320;52.512;13.448;2022-09-29T09:30:44;10.40;;;9.27;;
63218;SDS011;49320;52.512;13.448;2022-09-29T09:33:28;10.30;;;8.73;;
63218;SDS011;49320;52.512;13.448;2022-09-29T09:36:07;9.07;;;8.23;;
63218;SDS011;49320;52.512;13.448;2022-09-29T09:39:17;8.57;;;7.53;;
63218;SDS011;49320;52.512;13.448;2022-09-29T09:41:53;10.65;;;8.98;;
63218;SDS011;49320;52.512;13.448;2022-09-29T09:44:36;9.13;;;8.10;;
63218;SDS011;49320;52.512;13.448;2022-09-29T09:47:16;8.60;;;7.60;;
63218;SDS011;49320;52.512;13.448;2022-09-29T09:49:57;10.32;;;8.25;;
63218;SDS011;49320;52.512;13.448;2022-09-29T09:55:29;9.02;;;8.13;;
63218;SDS011;49320;52.512;13.448;2022-09-29T09:58:07;10.27;;;7.45;;
63218;SDS011;49320;52.512;13.448;2022-09-29T10:01:03;7.93;;;7.15;;
63218;SDS011;49320;52.512;13.448;2022-09-29T10:03:32;10.27;;;7.57;;
63218;SDS011;49320;52.512;13.448;2022-09-29T10:06:00;8.63;;;7.72;;
63218;SDS011;49320;52.512;13.448;2022-09-29T10:08:28;8.52;;;7.25;;
63218;SDS011;49320;52.512;13.448;2022-09-29T10:11:10;8.77;;;7.88;;
63218;SDS011;49320;52.512;13.448;2022-09-29T10:13:43;7.93;;;6.97;;
63218;SDS011;49320;52.512;13.448;2022-09-29T10:18:50;8.10;;;6.85;;
63218;SDS011;49320;52.512;13.448;2022-09-29T10:21:22;8.23;;;7.30;;
63218;SDS011;49320;52.512;13.448;2022-09-29T10:24:04;7.00;;;6.32;;
63218;SDS011;49320;52.512;13.448;2022-09-29T10:26:49;7.22;;;6.43;;
63218;SDS011;49320;52.512;13.448;2022-09-29T10:32:14;6.03;;;5.45;;
63218;SDS011;49320;52.512;13.448;2022-09-29T10:34:52;6.65;;;6.00;;
63218;SDS011;49320;52.512;13.448;2022-09-29T10:37:47;6.80;;;6.05;;
63218;SDS011;49320;52.512;13.448;2022-09-29T10:40:28;6.82;;;6.13;;
63218;SDS011;49320;52.512;13.448;2022-09-29T10:42:54;6.40;;;5.80;;
63218;SDS011;49320;52.512;13.448;2022-09-29T10:45:23;6.85;;;6.15;;
63218;SDS011;49320;52.512;13.448;2022-09-29T10:50:30;6.00;;;5.40;;
63218;SDS011;49320;52.512;13.448;2022-09-29T10:53:03;6.60;;;5.07;;
63218;SDS011;49320;52.512;13.448;2022-09-29T10:55:50;7.28;;;5.93;;
63218;SDS011;49320;52.512;13.448;2022-09-29T10:58:30;6.95;;;5.55;;
63218;SDS011;49320;52.512;13.448;2022-09-29T11:01:19;6.70;;;5.57;;
63218;SDS011;49320;52.512;13.448;2022-09-29T11:03:51;6.28;;;5.65;;
63218;SDS011;49320;52.512;13.448;2022-09-29T11:06:29;5.75;;;5.15;;
63218;SDS011;49320;52.512;13.448;2022-09-29T11:09:35;6.45;;;5.78;;
63218;SDS011;49320;52.512;13.448;2022-09-29T11:14:53;5.57;;;5.07;;
63218;SDS011;49320;52.512;13.448;2022-09-29T11:20:04;5.45;;;4.95;;
63218;SDS011;49320;52.512;13.448;2022-09-29T11:31:31;5.45;;;4.60;;
63218;SDS011;49320;52.512;13.448;2022-09-29T11:34:24;5.07;;;4.40;;
63218;SDS011;49320;52.512;13.448;2022-09-29T11:37:16;5.18;;;4.38;;
63218;SDS011;49320;52.512;13.448;2022-09-29T11:40:13;4.65;;;4.15;;
63218;SDS011;49320;52.512;13.448;2022-09-29T11:43:14;4.40;;;3.97;;
63218;SDS011;49320;52.512;13.448;2022-09-29T11:46:10;4.97;;;4.53;;
63218;SDS011;49320;52.512;13.448;2022-09-29T11:57:43;3.28;;;2.97;;
63218;SDS011;49320;52.512;13.448;2022-09-29T12:03:35;4.03;;;3.63;;
63218;SDS011;49320;52.512;13.448;2022-09-29T12:06:19;4.90;;;3.90;;
63218;SDS011;49320;52.512;13.448;2022-09-29T12:15:50;4.05;;;3.70;;
63218;SDS011;49320;52.512;13.448;2022-09-29T12:18:29;4.78;;;3.80;;
63218;SDS011;49320;52.512;13.448;2022-09-29T12:21:06;5.78;;;4.30;;
63218;SDS011;49320;52.512;13.448;2022-09-29T12:23:42;5.50;;;4.78;;
63218;SDS011;49320;52.512;13.448;2022-09-29T12:26:18;5.00;;;4.60;;
63218;SDS011;49320;52.512;13.448;2022-09-29T12:28:50;4.80;;;4.20;;
63218;SDS011;49320;52.512;13.448;2022-09-29T12:31:47;3.95;;;3.55;;
63218;SDS011;49320;52.512;13.448;2022-09-29T12:34:19;4.53;;;3.90;;
63218;SDS011;49320;52.512;13.448;2022-09-29T12:37:24;4.80;;;3.45;;
63218;SDS011;49320;52.512;13.448;2022-09-29T12:42:58;4.97;;;3.72;;
63218;SDS011;49320;52.512;13.448;2022-09-29T12:45:36;3.60;;;3.20;;
63218;SDS011;49320;52.512;13.448;2022-09-29T12:51:31;4.63;;;3.85;;
63218;SDS011;49320;52.512;13.448;2022-09-29T12:54:05;4.22;;;3.33;;
63218;SDS011;49320;52.512;13.448;2022-09-29T12:57:10;5.03;;;4.00;;
63218;SDS011;49320;52.512;13.448;2022-09-29T13:02:44;4.20;;;3.53;;
63218;SDS011;49320;52.512;13.448;2022-09-29T13:05:58;4.38;;;3.45;;
63218;SDS011;49320;52.512;13.448;2022-09-29T13:11:19;3.55;;;3.17;;
63218;SDS011;49320;52.512;13.448;2022-09-29T13:17:18;5.10;;;3.22;;
63218;SDS011;49320;52.512;13.448;2022-09-29T13:26:21;2.90;;;2.60;;
63218;SDS011;49320;52.512;13.448;2022-09-29T13:29:15;4.07;;;2.95;;
63218;SDS011;49320;52.512;13.448;2022-09-29T13:31:50;4.03;;;3.17;;
63218;SDS011;49320;52.512;13.448;2022-09-29T13:34:31;3.10;;;2.80;;
63218;SDS011;49320;52.512;13.448;2022-09-29T13:39:40;3.30;;;2.75;;
63218;SDS011;49320;52.512;13.448;2022-09-29T13:47:50;2.58;;;1.98;;
63218;SDS011;49320;52.512;13.448;2022-09-29T13:51:02;3.42;;;2.85;;
63218;SDS011;49320;52.512;13.448;2022-09-29T13:55:51;2.70;;;2.30;;
63218;SDS011;49320;52.512;13.448;2022-09-29T13:58:29;2.28;;;1.85;;
63218;SDS011;49320;52.512;13.448;2022-09-29T14:01:00;2.45;;;1.70;;
63218;SDS011;49320;52.512;13.448;2022-09-29T14:03:32;2.75;;;2.20;;
63218;SDS011;49320;52.512;13.448;2022-09-29T14:06:17;2.28;;;2.08;;
63218;SDS011;49320;52.512;13.448;2022-09-29T14:09:11;3.58;;;1.88;;
63218;SDS011;49320;52.512;13.448;2022-09-29T14:11:48;2.80;;;1.92;;
63218;SDS011;49320;52.512;13.448;2022-09-29T14:14:25;7.32;;;2.15;;
63218;SDS011;49320;52.512;13.448;2022-09-29T14:30:42;2.00;;;1.80;;
63218;SDS011;49320;52.512;13.448;2022-09-29T14:33:21;2.33;;;1.70;;
63218;SDS011;49320;52.512;13.448;2022-09-29T14:36:10;2.83;;;1.50;;
63218;SDS011;49320;52.512;13.448;2022-09-29T14:38:43;2.08;;;1.85;;
63218;SDS011;49320;52.512;13.448;2022-09-29T14:41:38;2.47;;;1.70;;
63218;SDS011;49320;52.512;13.448;2022-09-29T14:46:59;2.75;;;1.77;;
63218;SDS011;49320;52.512;13.448;2022-09-29T14:53:45;2.17;;;1.52;;
63218;SDS011;49320;52.512;13.448;2022-09-29T14:56:51;4.35;;;1.50;;
63218;SDS011;49320;52.512;13.448;2022-09-29T14:59:39;2.67;;;2.08;;
63218;SDS011;49320;52.512;13.448;2022-09-29T15:02:25;1.88;;;1.67;;
63218;SDS011;49320;52.512;13.448;2022-09-29T15:04:56;2.45;;;1.83;;
63218;SDS011;49320;52.512;13.448;2022-09-29T15:07:26;1.95;;;1.50;;
63218;SDS011;49320;52.512;13.448;2022-09-29T15:09:58;2.25;;;1.77;;
63218;SDS011;49320;52.512;13.448;2022-09-29T15:12:26;3.40;;;2.03;;
63218;SDS011;49320;52.512;13.448;2022-09-29T15:14:57;2.30;;;2.00;;
63218;SDS011;49320;52.512;13.448;2022-09-29T15:20:32;2.03;;;1.70;;
63218;SDS011;49320;52.512;13.448;2022-09-29T15:25:58;3.42;;;2.47;;
63218;SDS011;49320;52.512;13.448;2022-09-29T15:28:28;4.22;;;2.45;;
63218;SDS011;49320;52.512;13.448;2022-09-29T15:31:08;4.32;;;2.05;;
63218;SDS011;49320;52.512;13.448;2022-09-29T15:33:44;3.00;;;2.47;;
63218;SDS011;49320;52.512;13.448;2022-09-29T15:36:22;2.58;;;1.92;;
63218;SDS011;49320;52.512;13.448;2022-09-29T15:38:54;2.50;;;1.70;;
63218;SDS011;49320;52.512;13.448;2022-09-29T15:41:32;1.83;;;1.63;;
63218;SDS011;49320;52.512;13.448;2022-09-29T15:44:01;2.65;;;1.50;;
63218;SDS011;49320;52.512;13.448;2022-09-29T15:46:39;2.42;;;1.70;;
63218;SDS011;49320;52.512;13.448;2022-09-29T15:49:15;1.95;;;1.73;;
63218;SDS011;49320;52.512;13.448;2022-09-29T15:51:53;2.53;;;1.60;;
63218;SDS011;49320;52.512;13.448;2022-09-29T15:54:36;2.33;;;1.80;;
63218;SDS011;49320;52.512;13.448;2022-09-29T15:57:29;2.55;;;2.00;;
63218;SDS011;49320;52.512;13.448;2022-09-29T16:02:52;2.25;;;1.80;;
63218;SDS011;49320;52.512;13.448;2022-09-29T16:06:01;1.90;;;1.60;;
63218;SDS011;49320;52.512;13.448;2022-09-29T16:08:51;2.90;;;1.35;;
63218;SDS011;49320;52.512;13.448;2022-09-29T16:11:29;2.67;;;1.63;;
63218;SDS011;49320;52.512;13.448;2022-09-29T16:14:09;4.78;;;1.83;;
63218;SDS011;49320;52.512;13.448;2022-09-29T16:16:48;2.80;;;1.92;;
63218;SDS011;49320;52.512;13.448;2022-09-29T16:19:26;2.55;;;2.08;;
63218;SDS011;49320;52.512;13.448;2022-09-29T16:22:00;2.95;;;2.10;;
63218;SDS011;49320;52.512;13.448;2022-09-29T16:24:35;2.97;;;1.88;;
63218;SDS011;49320;52.512;13.448;2022-09-29T16:27:37;3.33;;;2.83;;
63218;SDS011;49320;52.512;13.448;2022-09-29T16:30:22;3.15;;;2.47;;
63218;SDS011;49320;52.512;13.448;2022-09-29T16:38:33;2.28;;;2.08;;
63218;SDS011;49320;52.512;13.448;2022-09-29T16:43:39;2.75;;;2.03;;
63218;SDS011;49320;52.512;13.448;2022-09-29T16:46:12;3.60;;;2.47;;
63218;SDS011;49320;52.512;13.448;2022-09-29T16:48:46;3.60;;;3.03;;
63218;SDS011;49320;52.512;13.448;2022-09-29T16:51:16;3.55;;;2.55;;
63218;SDS011;49320;52.512;13.448;2022-09-29T16:54:04;4.45;;;2.90;;
63218;SDS011;49320;52.512;13.448;2022-09-29T16:56:31;3.20;;;2.80;;
63218;SDS011;49320;52.512;13.448;2022-09-29T16:59:10;5.82;;;3.00;;
63218;SDS011;49320;52.512;13.448;2022-09-29T17:01:43;3.05;;;2.75;;
63218;SDS011;49320;52.512;13.448;2022-09-29T17:04:13;3.75;;;2.80;;
63218;SDS011;49320;52.512;13.448;2022-09-29T17:06:44;3.47;;;2.72;;
63218;SDS011;49320;52.512;13.448;2022-09-29T17:09:15;4.17;;;3.17;;
63218;SDS011;49320;52.512;13.448;2022-09-29T17:11:45;3.45;;;3.15;;
63218;SDS011;49320;52.512;13.448;2022-09-29T17:14:14;4.32;;;3.22;;
63218;SDS011;49320;52.512;13.448;2022-09-29T17:16:44;4.57;;;3.38;;
63218;SDS011;49320;52.512;13.448;2022-09-29T17:19:11;5.47;;;3.45;;
63218;SDS011;49320;52.512;13.448;2022-09-29T17:21:38;4.20;;;3.10;;
63218;SDS011;49320;52.512;13.448;2022-09-29T17:24:05;4.32;;;3.15;;
63218;SDS011;49320;52.512;13.448;2022-09-29T17:26:38;3.70;;;3.20;;
63218;SDS011;49320;52.512;13.448;2022-09-29T17:29:29;7.30;;;3.85;;
63218;SDS011;49320;52.512;13.448;2022-09-29T17:31:57;5.10;;;4.15;;
63218;SDS011;49320;52.512;13.448;2022-09-29T17:34:27;4.70;;;4.25;;
63218;SDS011;49320;52.512;13.448;2022-09-29T17:36:58;6.78;;;4.25;;
63218;SDS011;49320;52.512;13.448;2022-09-29T17:39:27;6.07;;;4.90;;
63218;SDS011;49320;52.512;13.448;2022-09-29T17:41:54;5.43;;;4.60;;
63218;SDS011;49320;52.512;13.448;2022-09-29T17:44:22;6.20;;;4.80;;
63218;SDS011;49320;52.512;13.448;2022-09-29T17:46:52;6.30;;;4.50;;
63218;SDS011;49320;52.512;13.448;2022-09-29T17:49:39;7.80;;;5.47;;
63218;SDS011;49320;52.512;13.448;2022-09-29T17:52:09;6.22;;;4.80;;
63218;SDS011;49320;52.512;13.448;2022-09-29T17:54:40;5.75;;;4.30;;
63218;SDS011;49320;52.512;13.448;2022-09-29T17:57:13;6.25;;;4.55;;